< < Back
Terminal Aerodrome Forecast


Current Version              Previous Versions:   1  2  3  4  5  6  7  8  9  

Terminal Aerodrome Forecast

246
FTUS42 KGSP 200500
TAFAND
TAF
KAND 200530Z 2006/2106 00000KT P6SM SCT250
     FM201700 21006KT P6SM FEW210=



Latest METAR

014
SAUS70 KWBC 210700 RRH
MTRAND
METAR KAND 210656Z AUTO 00000KT 10SM CLR 11/09 A2998 RMK AO2 SLP146
T01060094


USA.gov is the U.S. government's official web portal to all federal, state and local government web resources and services.